createdAt,value
2019-02-21T00:01:33.222Z,99025.59
2019-02-21T00:04:03.794Z,99022.02
2019-02-21T00:06:35.816Z,99029.44
2019-02-21T00:09:07.571Z,99033.09
2019-02-21T00:11:38.900Z,99035.57
2019-02-21T00:14:09.556Z,99032.76
2019-02-21T00:16:40.537Z,99027.52
2019-02-21T00:19:11.563Z,99030.70
2019-02-21T00:21:43.496Z,99033.35
2019-02-21T00:24:13.950Z,99036.03
2019-02-21T00:26:44.454Z,99036.37
2019-02-21T00:29:14.807Z,99036.37
2019-02-21T00:31:45.331Z,99045.05
2019-02-21T00:34:16.318Z,99032.77
2019-02-21T00:36:47.294Z,99036.62
2019-02-21T00:39:18.524Z,99034.06
2019-02-21T00:41:49.617Z,99036.91
2019-02-21T00:44:20.492Z,99044.00
2019-02-21T00:46:51.681Z,99038.63
2019-02-21T00:49:23.127Z,99049.19
2019-02-21T00:51:54.511Z,99030.41
2019-02-21T00:54:27.115Z,99051.91
2019-02-21T00:56:59.700Z,99043.60
2019-02-21T00:59:30.186Z,99042.43
2019-02-21T01:02:00.733Z,99039.58
2019-02-21T01:04:31.574Z,99039.91
2019-02-21T01:07:02.558Z,99047.13
2019-02-21T01:09:33.644Z,99049.30
2019-02-21T01:12:05.743Z,99045.91
2019-02-21T01:14:36.371Z,99048.09
2019-02-21T01:17:06.955Z,99037.36
2019-02-21T01:19:37.520Z,99037.73
2019-02-21T01:22:08.262Z,99034.21
2019-02-21T01:24:39.276Z,99040.59
2019-02-21T01:27:09.628Z,99038.56
2019-02-21T01:29:41.559Z,99039.24
2019-02-21T01:32:12.027Z,99033.37
2019-02-21T01:34:43.653Z,99036.56
2019-02-21T01:37:14.203Z,99025.95
2019-02-21T01:39:45.135Z,99030.78
2019-02-21T01:42:15.503Z,99028.73
2019-02-21T01:44:47.302Z,99034.09
2019-02-21T01:47:17.761Z,99044.70
2019-02-21T01:49:49.519Z,99044.81
2019-02-21T01:52:20.309Z,99045.55
2019-02-21T01:54:50.748Z,99033.28
2019-02-21T01:57:21.691Z,99041.87
2019-02-21T01:59:52.276Z,99041.42
2019-02-21T02:02:24.004Z,99037.77
2019-02-21T02:04:55.360Z,99041.80
2019-02-21T02:07:27.344Z,99039.95
2019-02-21T02:09:57.867Z,99043.84
2019-02-21T02:12:28.438Z,99036.30
2019-02-21T02:14:58.880Z,99041.29
2019-02-21T02:17:29.300Z,99037.06
2019-02-21T02:20:00.368Z,99049.34
2019-02-21T02:22:32.494Z,99041.09
2019-02-21T02:25:03.279Z,99042.97
2019-02-21T02:27:36.063Z,99043.14
2019-02-21T02:30:07.786Z,99043.64
2019-02-21T02:32:38.776Z,99038.73
2019-02-21T02:35:09.481Z,99038.88
2019-02-21T02:37:40.087Z,99018.84
2019-02-21T02:40:10.910Z,99024.92
2019-02-21T02:42:41.792Z,99024.22
2019-02-21T02:45:12.137Z,99027.41
2019-02-21T02:47:42.695Z,99020.19
2019-02-21T02:50:14.251Z,99025.84
2019-02-21T02:52:47.140Z,99035.62
2019-02-21T02:55:17.615Z,99039.05
2019-02-21T02:57:49.013Z,99032.05
2019-02-21T03:00:20.405Z,99028.73
2019-02-21T03:02:51.611Z,99037.75
2019-02-21T03:05:22.068Z,99031.38
2019-02-21T03:07:52.461Z,99027.61
2019-02-21T03:10:24.390Z,99023.00
2019-02-21T03:12:55.047Z,99022.08
2019-02-21T03:15:25.901Z,99019.31
2019-02-21T03:17:57.014Z,99027.20
2019-02-21T03:20:28.342Z,99020.87
2019-02-21T03:23:00.615Z,99020.87
2019-02-21T03:25:31.377Z,99026.19
2019-02-21T03:28:02.253Z,99024.97
2019-02-21T03:30:33.619Z,99027.83
2019-02-21T03:33:04.158Z,99030.67
2019-02-21T03:35:34.626Z,99027.33
2019-02-21T03:38:05.782Z,99032.52
2019-02-21T03:40:36.840Z,99030.01
2019-02-21T03:43:07.775Z,99034.75
2019-02-21T03:45:39.902Z,99042.42
2019-02-21T03:48:12.427Z,99037.30
2019-02-21T03:50:47.257Z,99050.16
2019-02-21T03:53:17.885Z,99033.20
2019-02-21T03:55:48.489Z,99033.20
2019-02-21T03:58:20.421Z,99032.05
2019-02-21T04:00:51.144Z,99033.93
2019-02-21T04:03:22.188Z,99030.41
2019-02-21T04:05:52.648Z,99030.41
2019-02-21T04:08:24.977Z,99032.59
2019-02-21T04:10:55.633Z,99028.09
2019-02-21T04:13:26.811Z,99033.34
2019-02-21T04:15:57.501Z,99027.06
2019-02-21T04:18:28.273Z,99019.92
2019-02-21T04:20:59.003Z,99017.41
2019-02-21T04:23:29.442Z,99018.95
2019-02-21T04:26:00.573Z,99013.21
2019-02-21T04:28:31.647Z,99013.64
2019-02-21T04:31:03.186Z,99010.45
2019-02-21T04:33:34.607Z,99006.77
2019-02-21T04:36:05.592Z,99007.52
2019-02-21T04:38:36.375Z,99008.82
2019-02-21T04:41:08.388Z,99010.16
2019-02-21T04:43:39.175Z,99001.41
2019-02-21T04:46:09.886Z,98999.89
2019-02-21T04:48:40.808Z,99003.13
2019-02-21T04:51:12.737Z,98996.11
2019-02-21T04:53:43.394Z,98992.72
2019-02-21T04:56:14.824Z,98991.55
2019-02-21T04:58:45.237Z,98990.74
2019-02-21T05:01:17.817Z,98991.02
2019-02-21T05:03:48.970Z,98996.78
2019-02-21T05:06:19.979Z,98989.89
2019-02-21T05:08:50.560Z,98992.00
2019-02-21T05:11:21.555Z,98995.19
2019-02-21T05:13:53.953Z,98989.36
2019-02-21T05:16:24.595Z,98996.89
2019-02-21T05:18:55.281Z,98983.16
2019-02-21T05:21:26.016Z,98983.95
2019-02-21T05:23:56.846Z,98986.77
2019-02-21T05:26:32.125Z,98985.23
2019-02-21T05:29:03.591Z,98986.53
2019-02-21T05:32:11.195Z,98984.98
2019-02-21T05:34:49.373Z,98999.88
2019-02-21T05:37:39.249Z,98992.13
2019-02-21T05:40:31.892Z,98998.30
2019-02-21T05:43:13.432Z,99004.47
2019-02-21T05:46:18.547Z,99008.16
2019-02-21T05:49:17.177Z,99008.66
2019-02-21T05:51:57.126Z,99016.89
2019-02-21T05:54:32.239Z,99016.27
2019-02-21T05:57:16.807Z,99022.67
2019-02-21T06:00:09.309Z,99017.00
2019-02-21T06:02:57.624Z,99016.33
2019-02-21T06:05:34.447Z,99017.64
2019-02-21T06:08:31.121Z,99014.02
2019-02-21T06:11:20.037Z,99021.89
2019-02-21T06:14:08.945Z,99031.45
2019-02-21T06:16:57.806Z,99023.73
2019-02-21T06:19:59.272Z,99032.15
2019-02-21T06:22:57.944Z,99036.17
2019-02-21T06:25:50.905Z,99041.17
2019-02-21T06:28:23.752Z,99038.48
2019-02-21T06:31:01.608Z,99030.58
2019-02-21T06:33:34.167Z,99039.22
2019-02-21T06:36:05.699Z,99039.86
2019-02-21T06:38:36.269Z,99045.52
2019-02-21T06:41:08.048Z,99045.19
2019-02-21T06:43:38.858Z,99051.39
2019-02-21T06:46:09.304Z,99050.28
2019-02-21T06:48:40.308Z,99056.55
2019-02-21T06:51:12.784Z,99052.02
2019-02-21T06:53:43.479Z,99053.83
2019-02-21T06:56:14.409Z,99054.00
2019-02-21T06:58:47.851Z,99051.25
2019-02-21T07:01:28.192Z,99044.55
2019-02-21T07:03:52.858Z,99044.84
2019-02-21T07:06:31.618Z,99053.03
2019-02-21T07:08:55.858Z,99035.55
2019-02-21T07:11:26.277Z,99042.89
2019-02-21T07:13:57.484Z,99042.73
2019-02-21T07:16:28.395Z,99043.32
2019-02-21T07:18:58.937Z,99040.15
2019-02-21T07:21:29.326Z,99046.78
2019-02-21T07:24:00.075Z,99043.68
2019-02-21T07:26:30.486Z,99043.23
2019-02-21T07:29:01.255Z,99044.19
2019-02-21T07:31:32.623Z,99045.70
2019-02-21T07:34:03.435Z,99045.88
2019-02-21T07:36:35.081Z,99044.53
2019-02-21T07:39:17.015Z,99049.77
2019-02-21T07:41:41.675Z,99052.15
2019-02-21T07:44:12.668Z,99046.91
2019-02-21T07:46:42.998Z,99050.38
2019-02-21T07:49:13.777Z,99049.59
2019-02-21T07:51:45.888Z,99055.41
2019-02-21T07:54:17.137Z,99056.70
2019-02-21T07:56:48.845Z,99063.48
2019-02-21T07:59:19.376Z,99063.41
2019-02-21T08:01:51.761Z,99059.80
2019-02-21T08:04:22.244Z,99063.52
2019-02-21T08:06:55.564Z,99069.33
2019-02-21T08:09:28.079Z,99073.78
2019-02-21T08:11:59.561Z,99067.06
2019-02-21T08:14:30.343Z,99065.87
2019-02-21T08:17:01.714Z,99068.17
2019-02-21T08:19:32.110Z,99072.71
2019-02-21T08:22:02.986Z,99068.14
2019-02-21T08:24:33.608Z,99071.33
2019-02-21T08:27:04.530Z,99077.34
2019-02-21T08:29:35.664Z,99070.89
2019-02-21T08:32:06.144Z,99064.61
2019-02-21T08:34:40.975Z,99072.96
2019-02-21T08:37:11.685Z,99066.00
2019-02-21T08:39:43.209Z,99076.20
2019-02-21T08:42:15.274Z,99072.22
2019-02-21T08:44:45.675Z,99072.99
2019-02-21T08:47:17.416Z,99072.08
2019-02-21T08:49:48.018Z,99074.55
2019-02-21T08:52:18.847Z,99075.51
2019-02-21T08:54:59.893Z,99073.75
2019-02-21T08:57:24.029Z,99078.56
2019-02-21T08:59:54.491Z,99079.45
2019-02-21T09:02:26.202Z,99086.50
2019-02-21T09:04:56.826Z,99074.09
2019-02-21T09:07:27.409Z,99071.94
2019-02-21T09:09:58.220Z,99071.34
2019-02-21T09:12:28.783Z,99075.49
2019-02-21T09:15:00.589Z,99067.52
2019-02-21T09:17:32.183Z,99063.41
2019-02-21T09:20:03.821Z,99056.95
2019-02-21T09:22:34.174Z,99068.16
2019-02-21T09:25:06.720Z,99064.13
2019-02-21T09:27:37.829Z,99062.17
2019-02-21T09:30:12.524Z,99055.64
2019-02-21T09:32:44.863Z,99053.56
2019-02-21T09:35:15.505Z,99053.36
2019-02-21T09:37:46.203Z,99041.96
2019-02-21T09:40:17.359Z,99051.70
2019-02-21T09:42:48.389Z,99080.34
2019-02-21T09:45:19.617Z,99065.09
2019-02-21T09:47:50.416Z,99061.27
2019-02-21T09:50:22.245Z,99057.61
2019-02-21T09:52:53.977Z,99067.27
2019-02-21T09:55:25.139Z,99035.09
2019-02-21T09:57:55.865Z,99062.41
2019-02-21T10:00:26.670Z,99060.02
2019-02-21T10:02:57.105Z,99059.05
2019-02-21T10:05:27.737Z,99045.38
2019-02-21T10:07:59.310Z,99060.82
2019-02-21T10:10:29.883Z,99046.00
2019-02-21T10:13:01.839Z,99045.27
2019-02-21T10:15:32.888Z,99048.06
2019-02-21T10:18:03.228Z,99059.16
2019-02-21T10:20:33.628Z,99084.08
2019-02-21T10:23:05.915Z,99044.02
2019-02-21T10:25:37.084Z,99060.60
2019-02-21T10:28:07.588Z,99031.65
2019-02-21T10:30:39.604Z,99033.88
2019-02-21T10:33:11.313Z,99027.87
2019-02-21T10:35:42.967Z,99042.50
2019-02-21T10:38:14.601Z,99037.32
2019-02-21T10:40:46.534Z,99018.13
2019-02-21T10:43:16.964Z,99020.90
2019-02-21T10:45:48.322Z,99010.66
2019-02-21T10:48:19.119Z,99003.73
2019-02-21T10:50:49.665Z,99004.66
2019-02-21T10:53:20.334Z,99011.82
2019-02-21T10:55:50.825Z,99005.86
2019-02-21T10:58:21.443Z,98990.11
2019-02-21T11:00:52.891Z,99010.24
2019-02-21T11:03:23.236Z,99006.10
2019-02-21T11:05:53.648Z,98990.19
2019-02-21T11:08:26.019Z,99027.05
2019-02-21T11:10:56.782Z,98987.05
2019-02-21T11:13:28.739Z,99006.24
2019-02-21T11:15:59.417Z,98983.77
2019-02-21T11:18:30.868Z,98963.67
2019-02-21T11:21:01.307Z,98978.28
2019-02-21T11:23:31.823Z,98992.22
2019-02-21T11:26:03.918Z,98968.38
2019-02-21T11:28:34.439Z,98957.16
2019-02-21T11:31:05.122Z,98947.14
2019-02-21T11:33:35.746Z,98941.84
2019-02-21T11:36:06.276Z,98948.17
2019-02-21T11:38:36.891Z,98936.33
2019-02-21T11:41:07.821Z,98946.79
2019-02-21T11:43:38.526Z,98933.03
2019-02-21T11:46:09.150Z,98934.55
2019-02-21T11:48:39.662Z,98924.47
2019-02-21T11:51:10.440Z,98921.20
2019-02-21T11:53:40.902Z,98949.21
2019-02-21T11:56:11.483Z,98928.18
2019-02-21T11:58:42.073Z,98937.98
2019-02-21T12:01:13.150Z,98929.72
2019-02-21T12:03:44.773Z,98910.19
2019-02-21T12:06:16.706Z,98912.91
2019-02-21T12:08:47.442Z,98909.41
2019-02-21T12:11:17.946Z,98904.46
2019-02-21T12:13:48.635Z,98919.98
2019-02-21T12:16:19.283Z,98916.97
2019-02-21T12:18:51.102Z,98903.16
2019-02-21T12:21:23.586Z,98905.45
2019-02-21T12:23:54.091Z,98903.71
2019-02-21T12:26:24.474Z,98901.29
2019-02-21T12:28:55.801Z,98903.21
2019-02-21T12:31:26.387Z,98895.63
2019-02-21T12:33:56.837Z,98902.22
2019-02-21T12:36:27.961Z,98893.20
2019-02-21T12:38:58.619Z,98892.23
2019-02-21T12:41:29.164Z,98889.66
2019-02-21T12:43:59.852Z,98887.23
2019-02-21T12:46:32.458Z,98877.73
2019-02-21T12:49:02.946Z,98878.25
2019-02-21T12:51:33.752Z,98877.09
2019-02-21T12:54:04.553Z,98881.95
2019-02-21T12:56:35.263Z,98884.30
2019-02-21T12:59:05.704Z,98884.58
2019-02-21T13:01:37.183Z,98877.73
2019-02-21T13:04:08.226Z,98880.80
2019-02-21T13:06:40.140Z,98878.38
2019-02-21T13:09:10.989Z,98872.41
2019-02-21T13:11:42.179Z,98866.21
2019-02-21T13:14:14.139Z,98875.67
2019-02-21T13:16:46.264Z,98863.30
2019-02-21T13:19:17.034Z,98847.37
2019-02-21T13:21:47.886Z,98858.62
2019-02-21T13:24:18.214Z,98853.77
2019-02-21T13:26:49.212Z,98854.94
2019-02-21T13:29:21.486Z,98852.08
2019-02-21T13:31:52.321Z,98841.84
2019-02-21T13:34:23.105Z,98843.42
2019-02-21T13:36:53.775Z,98847.00
2019-02-21T13:39:24.379Z,98824.02
2019-02-21T13:41:58.194Z,98829.44
2019-02-21T13:44:28.677Z,98826.05
2019-02-21T13:46:59.238Z,98834.04
2019-02-21T13:49:29.780Z,98835.93
2019-02-21T13:52:00.392Z,98834.22
2019-02-21T13:54:31.045Z,98833.09
2019-02-21T13:57:01.786Z,98821.98
2019-02-21T13:59:34.917Z,98827.72
2019-02-21T14:02:06.047Z,98831.75
2019-02-21T14:04:37.957Z,98829.13
2019-02-21T14:07:08.722Z,98827.82
2019-02-21T14:09:39.619Z,98832.70
2019-02-21T14:12:11.611Z,98828.89
2019-02-21T14:14:44.121Z,98823.33
2019-02-21T14:17:15.592Z,98831.52
2019-02-21T14:19:47.385Z,98821.95
2019-02-21T14:22:17.957Z,98823.54
2019-02-21T14:24:50.877Z,98818.61
2019-02-21T14:27:21.452Z,98834.34
2019-02-21T14:29:52.106Z,98829.17
2019-02-21T14:32:23.442Z,98834.73
2019-02-21T14:34:54.017Z,98826.16
2019-02-21T14:37:25.191Z,98815.36
2019-02-21T14:39:55.863Z,98829.30
2019-02-21T14:42:27.107Z,98835.83
2019-02-21T14:44:57.861Z,98825.55
2019-02-21T14:47:28.515Z,98830.62
2019-02-21T14:49:59.828Z,98826.33
2019-02-21T14:52:30.276Z,98830.41
2019-02-21T14:55:01.863Z,98826.59
2019-02-21T14:57:40.568Z,98825.87
2019-02-21T15:00:05.341Z,98823.74
2019-02-21T15:02:36.195Z,98830.92
2019-02-21T15:05:09.930Z,98824.02
2019-02-21T15:07:41.206Z,98832.52
2019-02-21T15:10:12.097Z,98832.05
2019-02-21T15:12:42.529Z,98826.65
2019-02-21T15:15:14.220Z,98839.73
2019-02-21T15:17:44.642Z,98839.44
2019-02-21T15:20:16.053Z,98834.77
2019-02-21T15:22:48.621Z,98836.02
2019-02-21T15:25:19.295Z,98833.32
2019-02-21T15:27:50.067Z,98815.29
2019-02-21T15:30:22.205Z,98848.31
2019-02-21T15:32:52.977Z,98829.03
2019-02-21T15:35:23.901Z,98843.67
2019-02-21T15:37:54.464Z,98847.21
2019-02-21T15:40:25.197Z,98864.54
2019-02-21T15:42:55.816Z,98826.29
2019-02-21T15:45:26.825Z,98822.34
2019-02-21T15:47:58.291Z,98842.47
2019-02-21T15:50:28.801Z,98844.55
2019-02-21T15:52:59.263Z,98838.33
2019-02-21T15:55:32.029Z,98838.66
2019-02-21T15:58:04.292Z,98849.46
2019-02-21T16:00:34.503Z,98845.32
2019-02-21T16:03:06.750Z,98857.73
2019-02-21T16:05:37.770Z,98844.29
2019-02-21T16:08:08.266Z,98850.89
2019-02-21T16:10:39.922Z,98836.49
2019-02-21T16:13:10.889Z,98845.21
2019-02-21T16:15:41.384Z,98850.08
2019-02-21T16:18:13.886Z,98846.34
2019-02-21T16:20:44.080Z,98852.35
2019-02-21T16:23:14.458Z,98863.20
2019-02-21T16:25:44.860Z,98851.50
2019-02-21T16:28:15.430Z,98858.86
2019-02-21T16:30:45.859Z,98850.87
2019-02-21T16:33:16.292Z,98844.98
2019-02-21T16:35:48.355Z,98850.96
2019-02-21T16:38:18.850Z,98851.58
2019-02-21T16:40:49.353Z,98849.92
2019-02-21T16:43:20.882Z,98852.07
2019-02-21T16:45:53.823Z,98851.45
2019-02-21T16:48:24.968Z,98861.06
2019-02-21T16:50:55.765Z,98856.00
2019-02-21T16:53:26.424Z,98859.98
2019-02-21T16:55:57.189Z,98853.98
2019-02-21T16:58:27.775Z,98853.37
2019-02-21T17:00:58.435Z,98857.98
2019-02-21T17:03:28.905Z,98844.44
2019-02-21T17:05:59.586Z,98852.72
2019-02-21T17:08:31.341Z,98861.48
2019-02-21T17:11:01.735Z,98864.28
2019-02-21T17:13:32.207Z,98870.28
2019-02-21T17:16:02.849Z,98886.38
2019-02-21T17:18:33.395Z,98861.52
2019-02-21T17:21:04.833Z,98862.97
2019-02-21T17:23:35.671Z,98864.60
2019-02-21T17:26:06.216Z,98849.45
2019-02-21T17:28:36.686Z,98852.86
2019-02-21T17:31:07.215Z,98850.57
2019-02-21T17:33:37.785Z,98863.67
2019-02-21T17:36:08.297Z,98877.51
2019-02-21T17:38:38.793Z,98880.26
2019-02-21T17:41:09.604Z,98845.53
2019-02-21T17:43:40.117Z,98852.20
2019-02-21T17:46:10.516Z,98868.00
2019-02-21T17:48:41.267Z,98858.88
2019-02-21T17:51:11.677Z,98847.30
2019-02-21T17:53:42.073Z,98837.88
2019-02-21T17:56:12.411Z,98871.34
2019-02-21T17:58:42.892Z,98852.59
2019-02-21T18:01:13.326Z,98843.91
2019-02-21T18:03:43.680Z,98844.19
2019-02-21T18:06:14.124Z,98829.48
2019-02-21T18:08:44.604Z,98837.60
2019-02-21T18:11:15.110Z,98841.78
2019-02-21T18:13:45.621Z,98816.78
2019-02-21T18:16:16.037Z,98826.45
2019-02-21T18:18:46.653Z,98849.66
2019-02-21T18:21:17.147Z,98843.37
2019-02-21T18:23:47.899Z,98843.88
2019-02-21T18:26:19.646Z,98823.30
2019-02-21T18:28:50.306Z,98828.61
2019-02-21T18:31:25.314Z,98806.00
2019-02-21T18:33:55.817Z,98833.41
2019-02-21T18:36:26.409Z,98812.27
2019-02-21T18:38:57.007Z,98822.04
2019-02-21T18:41:27.513Z,98796.98
2019-02-21T18:43:58.250Z,98817.83
2019-02-21T18:46:28.662Z,98812.16
2019-02-21T18:49:02.781Z,98818.34
2019-02-21T18:51:33.278Z,98830.29
2019-02-21T18:54:03.711Z,98826.98
2019-02-21T18:56:34.301Z,98796.63
2019-02-21T18:59:04.729Z,98799.52
2019-02-21T19:01:35.356Z,98804.55
2019-02-21T19:04:06.688Z,98805.27
2019-02-21T19:06:37.540Z,98806.73
2019-02-21T19:09:09.500Z,98814.66
2019-02-21T19:11:40.232Z,98802.08
2019-02-21T19:14:10.667Z,98805.56
2019-02-21T19:16:41.807Z,98811.14
2019-02-21T19:19:12.195Z,98779.13
2019-02-21T19:21:43.353Z,98779.95
2019-02-21T19:24:13.971Z,98784.48
2019-02-21T19:26:44.448Z,98776.77
2019-02-21T19:29:16.632Z,98780.80
2019-02-21T19:31:47.242Z,98784.31
2019-02-21T19:34:18.025Z,98785.15
2019-02-21T19:36:48.535Z,98776.59
2019-02-21T19:39:19.084Z,98766.55
2019-02-21T19:41:49.918Z,98775.25
2019-02-21T19:44:20.562Z,98776.14
2019-02-21T19:46:51.215Z,98762.40
2019-02-21T19:49:21.986Z,98750.95
2019-02-21T19:51:52.644Z,98758.20
2019-02-21T19:54:23.270Z,98758.50
2019-02-21T19:56:54.118Z,98749.94
2019-02-21T19:59:25.163Z,98739.21
2019-02-21T20:01:57.046Z,98736.14
2019-02-21T20:04:29.032Z,98742.40
2019-02-21T20:07:01.064Z,98734.68
2019-02-21T20:09:31.550Z,98737.69
2019-02-21T20:12:02.534Z,98728.15
2019-02-21T20:14:33.008Z,98746.25
2019-02-21T20:17:03.645Z,98728.69
2019-02-21T20:19:34.067Z,98728.36
2019-02-21T20:22:04.469Z,98711.09
2019-02-21T20:24:34.877Z,98711.09
2019-02-21T20:27:05.647Z,98718.64
2019-02-21T20:29:36.046Z,98721.83
2019-02-21T20:32:07.298Z,98709.91
2019-02-21T20:34:37.636Z,98702.75
2019-02-21T20:37:08.301Z,98702.55
2019-02-21T20:39:39.101Z,98704.93
2019-02-21T20:42:09.999Z,98710.59
2019-02-21T20:44:40.566Z,98702.12
2019-02-21T20:47:11.092Z,98699.45
2019-02-21T20:49:41.931Z,98695.84
2019-02-21T20:52:12.515Z,98707.41
2019-02-21T20:54:43.134Z,98695.33
2019-02-21T20:57:14.229Z,98692.77
2019-02-21T20:59:44.557Z,98691.13
2019-02-21T21:02:15.390Z,98693.81
2019-02-21T21:04:47.153Z,98683.59
2019-02-21T21:07:24.813Z,98676.77
2019-02-21T21:09:49.746Z,98689.78
2019-02-21T21:12:20.190Z,98702.16
2019-02-21T21:14:50.653Z,98676.88
2019-02-21T21:17:21.131Z,98684.72
2019-02-21T21:19:51.479Z,98686.39
2019-02-21T21:22:21.956Z,98674.94
2019-02-21T21:24:52.406Z,98696.28
2019-02-21T21:27:22.906Z,98686.50
2019-02-21T21:29:53.406Z,98677.95
2019-02-21T21:32:23.945Z,98671.86
2019-02-21T21:34:55.999Z,98680.75
2019-02-21T21:37:27.055Z,98667.95
2019-02-21T21:39:58.943Z,98672.19
2019-02-21T21:42:29.342Z,98667.45
2019-02-21T21:45:01.502Z,98672.92
2019-02-21T21:47:32.410Z,98662.91
2019-02-21T21:50:03.121Z,98660.67
2019-02-21T21:52:33.867Z,98660.67
2019-02-21T21:55:05.012Z,98651.58
2019-02-21T21:57:35.470Z,98653.36
2019-02-21T22:00:07.237Z,98659.05
2019-02-21T22:02:39.364Z,98659.67
2019-02-21T22:05:10.023Z,98650.39
2019-02-21T22:07:40.873Z,98656.80
2019-02-21T22:10:12.263Z,98655.03
2019-02-21T22:12:43.383Z,98649.48
2019-02-21T22:15:14.373Z,98650.83
2019-02-21T22:17:45.222Z,98659.32
2019-02-21T22:20:16.202Z,98642.60
2019-02-21T22:22:47.198Z,98651.82
2019-02-21T22:25:18.375Z,98648.48
2019-02-21T22:27:49.278Z,98641.77
2019-02-21T22:30:20.417Z,98647.47
2019-02-21T22:32:51.411Z,98641.27
2019-02-21T22:35:22.407Z,98635.17
2019-02-21T22:37:53.455Z,98643.22
2019-02-21T22:40:24.542Z,98638.00
2019-02-21T22:42:55.712Z,98638.11
2019-02-21T22:45:27.012Z,98640.25
2019-02-21T22:47:58.362Z,98631.18
2019-02-21T22:50:29.332Z,98627.16
2019-02-21T22:53:00.410Z,98618.59
2019-02-21T22:55:31.483Z,98618.59
2019-02-21T22:58:02.524Z,98618.92
2019-02-21T23:01:00.267Z,98611.38
2019-02-21T23:03:56.249Z,98604.66
2019-02-21T23:06:35.111Z,98603.10
2019-02-21T23:09:13.494Z,98604.77
2019-02-21T23:11:44.968Z,98598.89
2019-02-21T23:14:16.674Z,98590.84
2019-02-21T23:16:48.420Z,98592.06
2019-02-21T23:19:19.466Z,98602.19
2019-02-21T23:21:50.558Z,98598.48
2019-02-21T23:24:21.597Z,98599.11
2019-02-21T23:26:53.613Z,98607.16
2019-02-21T23:29:24.808Z,98595.59
2019-02-21T23:31:55.981Z,98597.77
2019-02-21T23:34:34.566Z,98593.23
2019-02-21T23:37:06.240Z,98583.43
2019-02-21T23:39:38.595Z,98591.27
2019-02-21T23:42:09.551Z,98580.12
2019-02-21T23:44:40.991Z,98583.21
2019-02-21T23:47:11.998Z,98584.47
2019-02-21T23:49:42.953Z,98575.91
2019-02-21T23:52:14.172Z,98572.06
2019-02-21T23:54:45.317Z,98585.59
2019-02-21T23:57:16.314Z,98586.00
2019-02-21T23:59:47.824Z,98583.02
